Time;durP1;ratioP1;P1;durP2;ratioP2;P2;SDS_P1;SDS_P2;PMS_P1;PMS_P2;Temp;Humidity;BMP_temperature;BMP_pressure;BME280_temperature;BME280_humidity;BME280_pressure;Samples;Min_cycle;Max_cycle;Signal;HPM_P1;HPM_P2
2021/04/15 00:04:49;;;;;;;9.23;5.43;;;;;1.50;102539.00;;;;9881239;30;20227;-72
2021/04/15 00:09:50;;;;;;;9.10;5.30;;;;;1.60;102530.00;;;;9896997;30;20260;-72
2021/04/15 00:14:51;;;;;;;9.03;5.17;;;;;1.60;102537.00;;;;9897470;30;20215;-72
2021/04/15 00:19:52;;;;;;;9.67;4.83;;;;;1.70;102539.00;;;;9895961;30;20708;-72
2021/04/15 00:24:54;;;;;;;9.90;4.57;;;;;1.70;102536.00;;;;9941436;29;20191;-72
2021/04/15 00:29:55;;;;;;;10.27;4.90;;;;;1.70;102529.00;;;;9933292;29;20207;-72
2021/04/15 00:34:56;;;;;;;8.20;4.83;;;;;1.60;102527.00;;;;9918084;29;20199;-71
2021/04/15 00:39:58;;;;;;;8.90;4.27;;;;;1.50;102526.00;;;;9933173;29;20225;-72
2021/04/15 00:45:10;;;;;;;7.33;4.30;;;;;1.40;102526.00;;;;9948674;29;20202;-72
2021/04/15 00:50:21;;;;;;;8.70;4.57;;;;;1.30;102520.00;;;;9932330;29;20272;-72
2021/04/15 00:55:28;;;;;;;9.17;5.33;;;;;1.20;102524.00;;;;9931883;29;20203;-72
2021/04/15 01:00:31;;;;;;;9.57;5.10;;;;;1.10;102520.00;;;;9917837;29;20230;-73
2021/04/15 01:05:39;;;;;;;10.03;5.23;;;;;1.00;102511.00;;;;9931782;29;20219;-72
2021/04/15 01:10:44;;;;;;;7.13;4.83;;;;;1.00;102515.00;;;;9932355;29;20711;-72
2021/04/15 01:16:22;;;;;;;9.10;4.53;;;;;1.00;102519.00;;;;9947444;29;20196;-72
2021/04/15 01:21:57;;;;;;;6.27;4.07;;;;;1.00;102506.00;;;;9948513;29;20248;-72
2021/04/15 01:27:25;;;;;;;8.23;4.00;;;;;1.00;102516.00;;;;9948071;29;20229;-72
2021/04/15 01:32:46;;;;;;;9.37;4.20;;;;;0.90;102510.00;;;;9931026;29;20203;-72
2021/04/15 01:37:51;;;;;;;10.40;4.23;;;;;0.80;102510.00;;;;9946292;29;20222;-72
2021/04/15 01:43:17;;;;;;;7.50;4.30;;;;;0.70;102509.00;;;;9946067;29;20211;-72
2021/04/15 01:48:25;;;;;;;7.63;3.93;;;;;0.70;102518.00;;;;9915037;29;20210;-72
2021/04/15 01:53:44;;;;;;;6.93;4.43;;;;;0.60;102500.00;;;;9916550;29;20230;-72
2021/04/15 01:58:55;;;;;;;8.73;4.57;;;;;0.60;102507.00;;;;9930489;29;20253;-72
2021/04/15 02:04:10;;;;;;;7.00;4.67;;;;;0.60;102496.00;;;;9902268;29;20190;-72
2021/04/15 02:09:14;;;;;;;8.20;4.13;;;;;0.50;102505.00;;;;9930728;29;20220;-72
2021/04/15 02:14:22;;;;;;;9.30;4.43;;;;;0.50;102500.00;;;;9929632;29;20207;-72
2021/04/15 02:19:47;;;;;;;6.57;4.40;;;;;0.50;102507.00;;;;9929237;29;20215;-72
2021/04/15 02:25:00;;;;;;;9.03;4.83;;;;;0.40;102510.00;;;;9944565;29;20667;-72
2021/04/15 02:30:31;;;;;;;8.00;5.03;;;;;0.30;102517.00;;;;9914324;29;20203;-72
2021/04/15 02:35:44;;;;;;;9.30;4.63;;;;;0.20;102514.00;;;;9893784;29;20222;-72
2021/04/15 02:40:56;;;;;;;10.80;4.57;;;;;0.20;102514.00;;;;9944822;29;20241;-72
2021/04/15 02:46:03;;;;;;;6.70;4.43;;;;;0.20;102518.00;;;;9928219;29;20210;-72
2021/04/15 02:51:20;;;;;;;7.83;4.97;;;;;0.10;102521.00;;;;9944450;29;20199;-73
2021/04/15 02:56:26;;;;;;;9.60;4.93;;;;;0.10;102519.00;;;;9943066;29;20548;-72
2021/04/15 03:01:33;;;;;;;11.33;5.17;;;;;0.10;102513.00;;;;9927922;29;20235;-72
2021/04/15 03:06:35;;;;;;;13.47;5.63;;;;;0.10;102520.00;;;;9913600;29;20279;-72
2021/04/15 03:11:42;;;;;;;7.77;5.50;;;;;0.00;102516.00;;;;9913017;29;20207;-72
2021/04/15 03:16:47;;;;;;;9.57;5.40;;;;;-0.10;102516.00;;;;9927377;29;20203;-72
2021/04/15 03:22:01;;;;;;;10.10;5.23;;;;;-0.20;102516.00;;;;9943201;29;20252;-72
2021/04/15 03:27:08;;;;;;;8.73;5.23;;;;;-0.20;102520.00;;;;9927514;29;20195;-72
2021/04/15 03:32:12;;;;;;;7.37;5.53;;;;;-0.30;102527.00;;;;9912329;29;20207;-72
2021/04/15 03:37:27;;;;;;;12.30;5.97;;;;;-0.30;102517.00;;;;9889133;30;20258;-73
2021/04/15 03:42:37;;;;;;;17.03;6.30;;;;;-0.30;102520.00;;;;9890324;29;20268;-72
2021/04/15 03:47:45;;;;;;;9.73;5.30;;;;;-0.40;102520.00;;;;9890528;29;20275;-72
2021/04/15 03:53:00;;;;;;;12.53;6.47;;;;;-0.40;102524.00;;;;9927476;29;20234;-72
2021/04/15 03:58:25;;;;;;;11.50;7.47;;;;;-0.50;102525.00;;;;9928164;29;20246;-72
2021/04/15 04:03:28;;;;;;;10.03;5.97;;;;;-0.50;102527.00;;;;9889638;30;20207;-72
2021/04/15 04:08:45;;;;;;;12.87;7.00;;;;;-0.50;102526.00;;;;9920673;29;20302;-72
2021/04/15 04:13:55;;;;;;;9.80;6.63;;;;;-0.60;102525.00;;;;9906186;29;20644;-72
2021/04/15 04:19:05;;;;;;;14.40;7.37;;;;;-0.60;102538.00;;;;9941781;29;20282;-72
2021/04/15 04:24:24;;;;;;;12.03;7.53;;;;;-0.60;102533.00;;;;9897575;29;20203;-72
2021/04/15 04:29:32;;;;;;;14.83;7.83;;;;;-0.70;102536.00;;;;9942458;29;20274;-72
2021/04/15 04:34:34;;;;;;;11.07;6.77;;;;;-0.70;102534.00;;;;9917491;29;20211;-72
2021/04/15 04:39:37;;;;;;;12.60;7.50;;;;;-0.80;102524.00;;;;9933321;29;20251;-72
2021/04/15 04:44:47;;;;;;;12.70;8.20;;;;;-0.80;102526.00;;;;9918602;29;20537;-72
2021/04/15 04:49:59;;;;;;;9.93;6.90;;;;;-0.80;102540.00;;;;9947284;29;20199;-72
2021/04/15 04:55:10;;;;;;;15.97;7.30;;;;;-0.80;102536.00;;;;9933339;29;20206;-72
2021/04/15 05:00:16;;;;;;;15.50;7.53;;;;;-0.80;102532.00;;;;9933207;29;20210;-72
2021/04/15 05:05:21;;;;;;;15.90;8.40;;;;;-0.70;102541.00;;;;9932278;29;20310;-72
2021/04/15 05:10:37;;;;;;;13.77;8.47;;;;;-0.50;102543.00;;;;9948740;29;20199;-72
2021/04/15 05:15:40;;;;;;;16.77;8.53;;;;;-0.20;102543.00;;;;9932366;29;20195;-72
2021/04/15 05:20:42;;;;;;;12.60;8.03;;;;;-0.20;102555.00;;;;9946454;29;20771;-72
2021/04/15 05:26:23;;;;;;;16.10;8.60;;;;;0.00;102549.00;;;;9917000;29;20296;-72
2021/04/15 05:31:29;;;;;;;15.63;8.83;;;;;0.40;102554.00;;;;9937277;29;20211;-72
2021/04/15 05:36:38;;;;;;;16.23;9.23;;;;;1.20;102574.00;;;;9909479;30;20210;-72
2021/04/15 05:41:57;;;;;;;12.53;8.27;;;;;1.90;102574.00;;;;9878561;29;20212;-72
2021/04/15 05:46:59;;;;;;;12.93;8.50;;;;;2.30;102570.00;;;;9908172;29;20203;-72
2021/04/15 05:52:30;;;;;;;15.87;8.83;;;;;2.60;102584.00;;;;9916107;29;20594;-72
2021/04/15 05:57:37;;;;;;;13.73;8.87;;;;;2.90;102573.00;;;;9890591;30;20211;-72
2021/04/15 06:03:11;;;;;;;13.07;8.13;;;;;3.20;102574.00;;;;9919845;29;20741;-72
2021/04/15 06:08:13;;;;;;;16.83;8.83;;;;;3.20;102577.00;;;;9913586;29;20231;-72
2021/04/15 06:13:25;;;;;;;16.80;8.80;;;;;3.60;102579.00;;;;9944740;29;20210;-72
2021/04/15 06:18:47;;;;;;;16.97;8.63;;;;;4.10;102579.00;;;;9916472;29;20266;-72
2021/04/15 06:23:56;;;;;;;13.03;8.13;;;;;4.70;102585.00;;;;9900862;29;20252;-72
2021/04/15 06:29:05;;;;;;;11.70;7.00;;;;;5.00;102584.00;;;;9929941;29;20198;-72
2021/04/15 06:34:07;;;;;;;11.03;6.63;;;;;5.30;102587.00;;;;9910176;29;20214;-73
2021/04/15 06:39:27;;;;;;;10.87;6.97;;;;;5.70;102585.00;;;;9898781;29;20228;-72
2021/04/15 06:45:02;;;;;;;12.17;6.63;;;;;6.00;102584.00;;;;9924289;29;20572;-72
2021/04/15 06:50:28;;;;;;;8.80;5.87;;;;;6.30;102591.00;;;;9900595;29;20828;-72
2021/04/15 06:55:44;;;;;;;10.53;7.10;;;;;6.60;102589.00;;;;9929641;29;20211;-72
2021/04/15 07:00:46;;;;;;;13.57;6.77;;;;;7.00;102589.00;;;;9905995;29;20240;-73
2021/04/15 07:05:57;;;;;;;13.50;6.77;;;;;7.20;102589.00;;;;9892896;29;20227;-72
2021/04/15 07:11:36;;;;;;;9.77;5.67;;;;;7.80;102585.00;;;;9919233;29;20207;-72
2021/04/15 07:16:46;;;;;;;9.87;5.77;;;;;8.30;102574.00;;;;9923807;29;20199;-72
2021/04/15 07:22:09;;;;;;;9.13;5.00;;;;;8.80;102570.00;;;;9907721;29;20317;-72
2021/04/15 07:27:35;;;;;;;7.90;4.97;;;;;9.50;102566.00;;;;9905265;29;20191;-72
2021/04/15 07:32:51;;;;;;;9.23;5.43;;;;;9.80;102552.00;;;;9920094;29;20211;-72
2021/04/15 07:38:37;;;;;;;6.77;4.77;;;;;10.40;102550.00;;;;9942538;29;20305;-72
2021/04/15 07:44:22;;;;;;;10.67;4.40;;;;;10.70;102553.00;;;;9926632;29;20244;-72
2021/04/15 07:49:55;;;;;;;5.87;2.63;;;;;10.90;102551.00;;;;9940257;29;20206;-73
2021/04/15 07:55:09;;;;;;;6.83;2.97;;;;;11.00;102543.00;;;;9942930;29;20231;-73
2021/04/15 08:00:38;;;;;;;6.93;2.97;;;;;11.60;102552.00;;;;9904727;29;20212;-73
2021/04/15 08:05:42;;;;;;;9.40;3.30;;;;;12.00;102550.00;;;;9920594;29;20699;-73
2021/04/15 08:11:00;;;;;;;5.63;2.30;;;;;12.30;102553.00;;;;9935369;29;20215;-73
2021/04/15 08:16:02;;;;;;;6.67;3.00;;;;;12.10;102554.00;;;;9889406;29;20211;-73
2021/04/15 08:21:22;;;;;;;6.20;2.83;;;;;13.80;102548.00;;;;9908167;29;20226;-72
2021/04/15 08:26:48;;;;;;;7.87;2.90;;;;;14.60;102543.00;;;;9914090;29;20296;-73
2021/04/15 08:32:12;;;;;;;5.00;2.13;;;;;14.80;102549.00;;;;9944392;29;20798;-73
2021/04/15 08:37:38;;;;;;;6.63;2.60;;;;;14.50;102550.00;;;;9944815;29;20671;-73
2021/04/15 08:43:01;;;;;;;3.90;2.80;;;;;14.30;102551.00;;;;9942126;29;20207;-74
2021/04/15 08:48:29;;;;;;;8.47;2.73;;;;;13.90;102558.00;;;;9882464;29;20208;-73
2021/04/15 08:53:36;;;;;;;5.70;2.77;;;;;13.90;102553.00;;;;9929812;29;20247;-74
2021/04/15 08:59:10;;;;;;;7.83;3.03;;;;;13.40;102557.00;;;;9931052;29;20268;-74
2021/04/15 09:04:24;;;;;;;8.10;3.20;;;;;13.00;102545.00;;;;9914183;29;20200;-73
2021/04/15 09:09:44;;;;;;;6.93;2.90;;;;;14.40;102544.00;;;;9948364;29;20203;-74
2021/04/15 09:15:16;;;;;;;3.77;1.40;;;;;14.70;102538.00;;;;9924283;29;20203;-74
2021/04/15 09:20:34;;;;;;;5.60;2.30;;;;;15.00;102547.00;;;;9892892;29;20224;-73
2021/04/15 09:25:51;;;;;;;4.33;2.33;;;;;14.80;102539.00;;;;9894641;29;20287;-73
2021/04/15 09:31:09;;;;;;;4.03;1.67;;;;;15.90;102538.00;;;;9900015;29;20209;-73
2021/04/15 09:36:52;;;;;;;4.43;1.57;;;;;15.80;102533.00;;;;9947710;29;20211;-74
2021/04/15 09:42:37;;;;;;;3.90;1.80;;;;;16.80;102525.00;;;;9945280;29;20242;-74
2021/04/15 09:47:38;;;;;;;4.33;1.37;;;;;16.30;102543.00;;;;9918517;29;20211;-72
2021/04/15 09:53:12;;;;;;;4.00;1.57;;;;;14.50;102549.00;;;;9879483;30;20239;-74
2021/04/15 09:58:35;;;;;;;4.27;1.50;;;;;13.20;102542.00;;;;9938391;29;20272;-74
2021/04/15 10:03:54;;;;;;;3.30;1.30;;;;;12.70;102542.00;;;;9912740;29;20296;-74
2021/04/15 10:08:58;;;;;;;3.83;1.70;;;;;12.90;102543.00;;;;9899534;29;20680;-74
2021/04/15 10:14:12;;;;;;;5.87;2.50;;;;;13.40;102548.00;;;;9945206;29;20206;-74
2021/04/15 10:19:52;;;;;;;6.53;2.10;;;;;15.40;102541.00;;;;9913040;29;20218;-73
2021/04/15 10:25:03;;;;;;;5.80;2.07;;;;;15.10;102542.00;;;;9896561;29;20240;-71
2021/04/15 10:30:57;;;;;;;4.63;1.83;;;;;14.30;102543.00;;;;9932330;29;20707;-74
2021/04/15 10:36:30;;;;;;;2.63;1.83;;;;;13.60;102543.00;;;;9866326;29;20211;-74
2021/04/15 10:41:57;;;;;;;9.17;4.23;;;;;13.40;102543.00;;;;9928901;29;20230;-74
2021/04/15 10:47:09;;;;;;;9.67;5.87;;;;;14.20;102528.00;;;;9942150;29;20240;-73
2021/04/15 10:52:25;;;;;;;10.73;4.80;;;;;15.20;102523.00;;;;9943326;29;20201;-73
2021/04/15 10:57:31;;;;;;;7.27;4.27;;;;;15.80;102522.00;;;;9943308;29;20305;-74
2021/04/15 11:02:51;;;;;;;7.87;4.27;;;;;15.70;102526.00;;;;9942597;29;20219;-73
2021/04/15 11:07:56;;;;;;;6.87;3.43;;;;;15.40;102513.00;;;;9927697;29;20219;-73
2021/04/15 11:13:25;;;;;;;2.70;1.77;;;;;15.80;102505.00;;;;9893808;29;20210;-73
2021/04/15 11:18:31;;;;;;;4.50;1.83;;;;;15.40;102516.00;;;;9930675;29;20605;-73
2021/04/15 11:23:32;;;;;;;5.37;2.00;;;;;14.50;102510.00;;;;9941807;29;20643;-74
2021/04/15 11:28:35;;;;;;;5.70;1.83;;;;;13.80;102505.00;;;;9943272;29;20199;-73
2021/04/15 11:33:46;;;;;;;3.40;1.70;;;;;13.40;102502.00;;;;9919304;29;20211;-73
2021/04/15 11:39:04;;;;;;;6.90;2.30;;;;;13.00;102506.00;;;;9930606;29;20616;-74
2021/04/15 11:44:09;;;;;;;3.33;2.40;;;;;12.60;102507.00;;;;9914818;29;20214;-73
2021/04/15 11:49:19;;;;;;;4.87;2.20;;;;;12.40;102500.00;;;;9927797;29;20207;-73
2021/04/15 11:54:27;;;;;;;6.57;2.90;;;;;12.80;102496.00;;;;9934102;29;20211;-73
2021/04/15 11:59:33;;;;;;;5.10;3.03;;;;;13.20;102492.00;;;;9931890;29;20215;-73
2021/04/15 12:04:34;;;;;;;3.80;2.73;;;;;13.60;102482.00;;;;9924084;29;20277;-73
2021/04/15 12:09:36;;;;;;;5.50;2.43;;;;;14.00;102480.00;;;;9941585;29;20603;-74
2021/04/15 12:14:39;;;;;;;4.57;2.50;;;;;13.90;102477.00;;;;9942603;29;20199;-73
2021/04/15 12:19:56;;;;;;;3.80;2.33;;;;;13.80;102484.00;;;;9912107;29;20541;-74
2021/04/15 12:25:03;;;;;;;4.73;2.53;;;;;14.00;102480.00;;;;9938406;29;20256;-73
2021/04/15 12:30:25;;;;;;;4.07;2.50;;;;;14.10;102481.00;;;;9931150;29;20264;-73
2021/04/15 12:35:38;;;;;;;4.30;2.60;;;;;15.10;102465.00;;;;9933661;29;20664;-74
2021/04/15 12:40:41;;;;;;;3.73;2.53;;;;;16.10;102456.00;;;;9922797;29;20219;-73
2021/04/15 12:45:52;;;;;;;4.90;2.53;;;;;17.00;102460.00;;;;9901549;29;20215;-73
2021/04/15 12:50:54;;;;;;;3.27;2.47;;;;;17.90;102453.00;;;;9919589;29;20974;-73
2021/04/15 12:55:57;;;;;;;3.73;2.30;;;;;18.60;102448.00;;;;9929025;29;20226;-73
2021/04/15 13:01:01;;;;;;;3.70;1.95;;;;;19.50;102446.00;;;;9903101;29;20219;-73
2021/04/15 13:06:28;;;;;;;3.42;2.10;;;;;17.60;102455.00;;;;9914478;29;20228;-74
2021/04/15 13:11:35;;;;;;;3.00;2.00;;;;;15.10;102451.00;;;;9914477;29;20198;-74
2021/04/15 13:16:39;;;;;;;4.10;1.97;;;;;13.60;102455.00;;;;9909705;29;20629;-73
2021/04/15 13:21:56;;;;;;;4.10;1.60;;;;;13.40;102445.00;;;;9919172;29;20220;-72
2021/04/15 13:27:35;;;;;;;3.43;1.90;;;;;13.40;102443.00;;;;9898256;29;20219;-74
2021/04/15 13:33:10;;;;;;;3.93;2.23;;;;;13.30;102445.00;;;;9906955;29;20214;-73
2021/04/15 13:43:32;;;;;;;4.43;2.20;;;;;13.30;102430.00;;;;9929117;29;20243;-73
2021/04/15 13:48:42;;;;;;;6.97;2.50;;;;;16.50;102417.00;;;;9932258;29;20207;-75
2021/04/15 13:53:56;;;;;;;3.63;2.30;;;;;20.40;102401.00;;;;9947126;29;20191;-74
2021/04/15 13:58:58;;;;;;;6.83;2.60;;;;;23.80;102399.00;;;;9915779;29;20514;-74
2021/04/15 14:04:01;;;;;;;3.80;2.08;;;;;23.50;102405.00;;;;9923271;29;20700;-72
2021/04/15 14:09:24;;;;;;;4.47;2.30;;;;;17.10;102415.00;;;;9919345;29;20230;-75
2021/04/15 14:14:42;;;;;;;3.00;1.80;;;;;14.10;102411.00;;;;9894045;30;20199;-76
2021/04/15 14:19:44;;;;;;;2.67;1.93;;;;;12.80;102399.00;;;;9887395;29;20687;-75
2021/04/15 14:24:52;;;;;;;4.33;2.47;;;;;12.20;102397.00;;;;9929760;29;20241;-75
2021/04/15 14:29:53;;;;;;;7.37;2.00;;;;;11.90;102389.00;;;;9900804;29;20226;-74
2021/04/15 14:35:12;;;;;;;1.77;1.60;;;;;12.10;102378.00;;;;9945445;29;20199;-75
2021/04/15 14:40:29;;;;;;;2.23;1.53;;;;;12.30;102381.00;;;;9896176;29;20214;-75
2021/04/15 14:45:35;;;;;;;1.67;1.47;;;;;12.50;102377.00;;;;9914559;29;20221;-74
2021/04/15 14:50:39;;;;;;;2.40;1.27;;;;;12.50;102369.00;;;;9899571;30;20215;-75
2021/04/15 14:55:42;;;;;;;3.83;1.80;;;;;12.60;102375.00;;;;9899093;29;20206;-75
2021/04/15 15:00:50;;;;;;;2.70;1.60;;;;;12.80;102370.00;;;;9924603;29;20216;-74
2021/04/15 15:05:54;;;;;;;3.20;1.70;;;;;12.80;102376.00;;;;9908675;29;20568;-75
2021/04/15 15:10:57;;;;;;;3.13;2.07;;;;;13.10;102366.00;;;;9903897;29;20808;-74
2021/04/15 15:15:59;;;;;;;1.97;1.53;;;;;13.70;102362.00;;;;9913284;29;20264;-75
2021/04/15 15:21:18;;;;;;;2.13;1.80;;;;;14.40;102348.00;;;;9914581;29;20218;-75
2021/04/15 15:26:33;;;;;;;2.83;1.60;;;;;16.30;102353.00;;;;9927623;29;20613;-75
2021/04/15 15:31:42;;;;;;;4.17;2.40;;;;;14.70;102373.00;;;;9878488;29;20210;-74
2021/04/15 15:36:44;;;;;;;3.17;2.10;;;;;12.50;102369.00;;;;9923170;29;20230;-75
2021/04/15 15:42:06;;;;;;;4.53;2.47;;;;;11.40;102365.00;;;;9925032;29;20227;-74
2021/04/15 15:47:12;;;;;;;3.90;2.30;;;;;11.20;102369.00;;;;9902303;29;20574;-74
2021/04/15 15:52:29;;;;;;;3.17;2.03;;;;;11.20;102359.00;;;;9894171;30;20196;-74
2021/04/15 15:57:32;;;;;;;2.60;2.20;;;;;11.30;102361.00;;;;9907743;29;20207;-74
2021/04/15 16:02:48;;;;;;;4.17;2.17;;;;;11.50;102358.00;;;;9929148;29;20211;-74
2021/04/15 16:07:55;;;;;;;2.97;1.93;;;;;11.70;102362.00;;;;9921308;29;20226;-74
2021/04/15 16:12:57;;;;;;;3.80;2.00;;;;;11.70;102347.00;;;;9910987;29;20208;-74
2021/04/15 16:18:08;;;;;;;2.17;1.97;;;;;11.60;102352.00;;;;9890638;30;20226;-74
2021/04/15 16:23:12;;;;;;;3.63;2.00;;;;;11.80;102348.00;;;;9916374;29;20668;-73
2021/04/15 16:28:14;;;;;;;3.00;1.60;;;;;11.90;102356.00;;;;9896889;29;20253;-73
2021/04/15 16:33:16;;;;;;;2.83;1.57;;;;;11.80;102362.00;;;;9920997;29;20199;-73
2021/04/15 16:38:25;;;;;;;3.73;2.40;;;;;11.60;102356.00;;;;9941792;29;21136;-73
2021/04/15 16:43:28;;;;;;;3.40;2.50;;;;;11.20;102358.00;;;;9881124;29;20269;-73
2021/04/15 16:48:29;;;;;;;2.47;2.10;;;;;10.60;102361.00;;;;9917381;29;20199;-73
2021/04/15 16:53:32;;;;;;;4.27;2.70;;;;;10.30;102353.00;;;;9921848;29;20199;-73
2021/04/15 16:58:33;;;;;;;5.67;3.50;;;;;10.10;102353.00;;;;9948462;29;20219;-73
2021/04/15 17:03:46;;;;;;;5.83;3.50;;;;;10.10;102349.00;;;;9934907;29;20746;-73
2021/04/15 17:08:49;;;;;;;4.13;2.30;;;;;9.90;102352.00;;;;9918333;29;20629;-73
2021/04/15 17:13:52;;;;;;;4.17;3.20;;;;;9.90;102354.00;;;;9933967;29;20297;-73
2021/04/15 17:18:54;;;;;;;2.90;2.60;;;;;9.90;102348.00;;;;9920201;29;20269;-73
2021/04/15 17:23:55;;;;;;;5.47;2.70;;;;;9.90;102344.00;;;;9922698;29;20266;-73
2021/04/15 17:28:58;;;;;;;3.97;2.67;;;;;9.90;102349.00;;;;9933251;29;20206;-73
2021/04/15 17:33:59;;;;;;;3.53;2.07;;;;;9.80;102345.00;;;;9932873;29;20255;-73
2021/04/15 17:39:03;;;;;;;4.60;2.50;;;;;9.70;102347.00;;;;9901566;29;20671;-73
2021/04/15 17:44:06;;;;;;;5.27;2.50;;;;;9.50;102341.00;;;;9946804;29;20302;-73
2021/04/15 17:49:27;;;;;;;4.20;2.87;;;;;9.30;102341.00;;;;9931670;29;20195;-73
2021/04/15 17:54:31;;;;;;;4.57;2.80;;;;;9.10;102341.00;;;;9917179;29;20288;-73
2021/04/15 17:59:33;;;;;;;3.63;2.33;;;;;8.90;102333.00;;;;9916571;29;20639;-73
2021/04/15 18:04:35;;;;;;;3.87;3.17;;;;;8.70;102336.00;;;;9931079;29;20276;-73
2021/04/15 18:09:36;;;;;;;4.23;2.83;;;;;8.60;102342.00;;;;9931297;29;20206;-73
2021/04/15 18:14:59;;;;;;;8.93;3.27;;;;;8.40;102341.00;;;;9933951;29;20209;-73
2021/04/15 18:20:00;;;;;;;4.33;3.30;;;;;8.10;102339.00;;;;9931199;29;20219;-73
2021/04/15 18:25:04;;;;;;;4.83;3.13;;;;;7.80;102346.00;;;;9930053;29;20234;-73
2021/04/15 18:30:09;;;;;;;5.47;3.77;;;;;7.60;102349.00;;;;9930795;29;20199;-73
2021/04/15 18:35:15;;;;;;;5.03;3.70;;;;;7.30;102349.00;;;;9946420;29;20559;-73
2021/04/15 18:40:21;;;;;;;5.83;4.07;;;;;7.10;102348.00;;;;9916449;29;20250;-73
2021/04/15 18:45:23;;;;;;;4.87;3.67;;;;;6.90;102353.00;;;;9944564;29;20215;-73
2021/04/15 18:50:33;;;;;;;4.40;3.07;;;;;6.70;102351.00;;;;9929071;29;20257;-73
2021/04/15 18:55:35;;;;;;;5.13;3.50;;;;;6.60;102359.00;;;;9914936;29;20280;-73
2021/04/15 19:00:41;;;;;;;7.63;3.60;;;;;6.40;102368.00;;;;9945442;29;20922;-73
2021/04/15 19:05:43;;;;;;;8.27;3.90;;;;;6.20;102368.00;;;;9928921;29;20703;-73
2021/04/15 19:10:45;;;;;;;7.53;4.90;;;;;6.10;102390.00;;;;9944139;29;20203;-73
2021/04/15 19:15:50;;;;;;;7.33;4.87;;;;;6.00;102387.00;;;;9943989;29;20195;-73
2021/04/15 19:20:52;;;;;;;15.53;6.57;;;;;5.80;102393.00;;;;9928607;29;20272;-72
2021/04/15 19:25:58;;;;;;;5.50;4.77;;;;;5.70;102382.00;;;;9930190;29;20734;-73
2021/04/15 19:31:04;;;;;;;6.47;4.90;;;;;5.60;102389.00;;;;9929299;29;20200;-73
2021/04/15 19:36:05;;;;;;;6.00;4.37;;;;;5.40;102384.00;;;;9901627;30;20199;-73
2021/04/15 19:41:07;;;;;;;5.07;4.53;;;;;5.20;102389.00;;;;9906330;29;20227;-72
2021/04/15 19:46:09;;;;;;;8.33;5.67;;;;;5.10;102397.00;;;;9910527;29;20191;-73
2021/04/15 19:51:13;;;;;;;9.03;5.33;;;;;5.00;102394.00;;;;9943246;29;20196;-73
2021/04/15 19:56:16;;;;;;;5.80;5.30;;;;;4.80;102394.00;;;;9927886;29;20242;-73
2021/04/15 20:01:35;;;;;;;9.70;6.43;;;;;4.70;102398.00;;;;9938602;29;20219;-73
2021/04/15 20:06:37;;;;;;;11.03;8.43;;;;;4.50;102395.00;;;;9935542;29;20230;-73
2021/04/15 20:11:40;;;;;;;12.07;7.53;;;;;4.40;102394.00;;;;9935475;29;20252;-73
2021/04/15 20:16:41;;;;;;;8.27;5.90;;;;;4.30;102403.00;;;;9951497;29;20215;-72
2021/04/15 20:21:42;;;;;;;7.83;5.17;;;;;4.20;102392.00;;;;9935298;29;20219;-73
2021/04/15 20:26:44;;;;;;;6.90;5.33;;;;;4.10;102387.00;;;;9950121;29;20255;-73
2021/04/15 20:32:04;;;;;;;6.73;4.30;;;;;4.10;102386.00;;;;9949921;29;20199;-72
2021/04/15 20:37:08;;;;;;;7.10;4.57;;;;;4.20;102395.00;;;;9949942;29;20268;-73
2021/04/15 20:42:12;;;;;;;5.33;4.10;;;;;4.30;102385.00;;;;9950179;29;20223;-72
2021/04/15 20:47:17;;;;;;;5.93;4.30;;;;;4.40;102382.00;;;;9949354;29;20191;-73
2021/04/15 20:54:39;;;;;;;6.27;4.20;;;;;4.40;102387.00;;;;9936795;29;20823;-72
2021/04/15 20:59:41;;;;;;;5.57;3.93;;;;;4.40;102386.00;;;;9918646;29;20322;-73
2021/04/15 21:05:20;;;;;;;8.73;4.83;;;;;4.40;102385.00;;;;9937896;29;20314;-72
2021/04/15 21:12:42;;;;;;;5.87;4.23;;;;;4.40;102388.00;;;;9948778;29;20607;-72
2021/04/15 21:18:20;;;;;;;6.63;4.23;;;;;4.40;102383.00;;;;9937512;29;20293;-72
2021/04/15 21:23:58;;;;;;;7.73;4.60;;;;;4.40;102384.00;;;;9947892;29;20655;-72
2021/04/15 21:29:36;;;;;;;9.80;4.97;;;;;4.30;102391.00;;;;9926694;29;20222;-73
2021/04/15 21:34:39;;;;;;;9.27;5.10;;;;;4.30;102388.00;;;;9947824;29;20205;-73
2021/04/15 21:40:21;;;;;;;7.77;4.87;;;;;4.30;102386.00;;;;9947744;29;20246;-72
2021/04/15 21:45:24;;;;;;;6.63;5.00;;;;;4.20;102377.00;;;;9946823;29;20207;-72
2021/04/15 21:50:34;;;;;;;7.33;4.90;;;;;4.20;102369.00;;;;9946865;29;20234;-73
2021/04/15 21:56:15;;;;;;;9.23;5.03;;;;;4.20;102385.00;;;;9936627;29;20202;-72
2021/04/15 22:03:24;;;;;;;10.83;5.33;;;;;4.10;102358.00;;;;9947736;29;20198;-73
2021/04/15 22:09:09;;;;;;;9.57;5.03;;;;;4.10;102373.00;;;;9946318;29;20238;-72
2021/04/15 22:14:47;;;;;;;8.60;5.10;;;;;4.00;102372.00;;;;9946304;29;20194;-72
2021/04/15 22:20:32;;;;;;;8.97;6.27;;;;;4.00;102386.00;;;;9945873;29;20211;-72
2021/04/15 22:26:14;;;;;;;12.53;6.77;;;;;3.80;102374.00;;;;9935330;29;20290;-72
2021/04/15 22:32:00;;;;;;;8.03;5.67;;;;;3.80;102383.00;;;;9935765;29;20213;-72
2021/04/15 22:37:44;;;;;;;12.30;6.23;;;;;3.70;102381.00;;;;9946142;29;20230;-72
2021/04/15 22:43:24;;;;;;;8.23;6.07;;;;;3.60;102373.00;;;;9945090;29;20238;-72
2021/04/15 22:49:05;;;;;;;9.97;6.40;;;;;3.60;102385.00;;;;9944890;29;20299;-72
2021/04/15 22:54:47;;;;;;;9.60;6.30;;;;;3.50;102383.00;;;;9944978;29;20282;-72
2021/04/15 23:00:33;;;;;;;9.50;6.57;;;;;3.40;102376.00;;;;9934138;29;20261;-72
2021/04/15 23:08:12;;;;;;;8.43;6.53;;;;;3.30;102377.00;;;;9945505;29;20269;-72
2021/04/15 23:13:50;;;;;;;9.37;6.70;;;;;3.20;102377.00;;;;9944057;29;20568;-72
2021/04/15 23:21:00;;;;;;;12.37;6.90;;;;;3.10;102373.00;;;;9945361;29;20315;-72
2021/04/15 23:26:39;;;;;;;11.47;6.93;;;;;3.10;102368.00;;;;9943904;29;20596;-72
2021/04/15 23:32:21;;;;;;;9.23;7.33;;;;;3.10;102368.00;;;;9923548;29;20210;-72
2021/04/15 23:38:06;;;;;;;10.53;7.17;;;;;3.00;102365.00;;;;9891117;29;20204;-72
2021/04/15 23:43:47;;;;;;;9.93;7.27;;;;;3.00;102363.00;;;;9914235;29;20758;-72
2021/04/15 23:49:26;;;;;;;10.53;7.50;;;;;2.90;102368.00;;;;9913506;29;20202;-72
2021/04/15 23:56:34;;;;;;;9.70;6.60;;;;;2.80;102367.00;;;;9951714;29;20300;-72
